createdAt,value
2023-03-18T00:02:49.076Z,17.90
2023-03-18T00:07:50.443Z,18.50
2023-03-18T00:12:49.517Z,17.75
2023-03-18T00:17:49.692Z,17.90
2023-03-18T00:22:51.199Z,16.05
2023-03-18T00:27:50.148Z,17.75
2023-03-18T00:32:49.182Z,15.90
2023-03-18T00:37:49.691Z,15.10
2023-03-18T00:42:50.710Z,16.95
2023-03-18T00:47:50.363Z,15.35
2023-03-18T00:52:50.512Z,16.30
2023-03-18T00:57:49.303Z,17.33
2023-03-18T01:02:49.359Z,19.02
2023-03-18T01:07:48.478Z,21.35
2023-03-18T01:12:48.652Z,23.17
2023-03-18T01:17:48.192Z,16.58
2023-03-18T01:22:47.790Z,18.50
2023-03-18T01:27:48.465Z,18.50
2023-03-18T01:32:48.001Z,16.02
2023-03-18T01:37:47.251Z,11.18
2023-03-18T01:42:57.284Z,15.05
2023-03-18T01:47:58.989Z,12.13
2023-03-18T01:53:01.222Z,11.85
2023-03-18T01:58:04.842Z,11.07
2023-03-18T02:03:05.015Z,12.95
2023-03-18T02:08:03.854Z,18.20
2023-03-18T02:13:06.868Z,16.40
2023-03-18T02:18:13.081Z,12.57
2023-03-18T02:23:36.797Z,10.38
2023-03-18T02:28:40.005Z,10.35
2023-03-18T02:33:42.106Z,9.95
2023-03-18T02:38:43.168Z,9.20
2023-03-18T02:43:46.250Z,11.02
2023-03-18T02:48:47.424Z,9.57
2023-03-18T02:53:46.480Z,8.50
2023-03-18T02:58:47.086Z,7.35
2023-03-18T03:03:47.563Z,5.13
2023-03-18T03:08:46.959Z,4.80
2023-03-18T03:13:48.164Z,4.68
2023-03-18T03:18:48.630Z,4.60
2023-03-18T03:23:48.685Z,4.03
2023-03-18T03:28:49.080Z,4.65
2023-03-18T03:33:47.939Z,4.72
2023-03-18T03:38:47.362Z,3.85
2023-03-18T03:43:46.178Z,4.30
2023-03-18T03:48:48.032Z,5.05
2023-03-18T03:53:48.158Z,4.45
2023-03-18T03:58:47.803Z,4.75
2023-03-18T04:03:48.656Z,4.38
2023-03-18T04:08:49.072Z,4.03
2023-03-18T04:13:47.992Z,5.07
2023-03-18T04:18:48.318Z,4.90
2023-03-18T04:23:47.441Z,5.82
2023-03-18T04:28:47.512Z,5.15
2023-03-18T04:33:49.548Z,21.65
2023-03-18T04:38:48.547Z,33.03
2023-03-18T04:43:48.950Z,30.40
2023-03-18T04:48:49.354Z,17.80
2023-03-18T04:53:49.076Z,61.10
2023-03-18T04:58:48.344Z,57.75
2023-03-18T05:03:53.507Z,21.80
2023-03-18T05:08:55.189Z,11.52
2023-03-18T05:13:56.150Z,10.60
2023-03-18T05:19:01.881Z,9.95
2023-03-18T05:24:01.301Z,7.45
2023-03-18T05:29:06.339Z,7.30
2023-03-18T05:34:14.261Z,3.90
2023-03-18T05:39:15.059Z,2.50
2023-03-18T05:44:14.833Z,2.47
2023-03-18T05:49:16.193Z,3.10
2023-03-18T05:54:25.451Z,3.47
2023-03-18T05:59:31.968Z,3.03
2023-03-18T06:04:38.064Z,2.70
2023-03-18T06:09:38.666Z,2.35
2023-03-18T06:14:41.157Z,2.03
2023-03-18T06:19:46.264Z,2.03
2023-03-18T06:24:47.830Z,2.80
2023-03-18T06:29:49.005Z,6.07
2023-03-18T06:34:52.669Z,10.15
2023-03-18T06:39:52.087Z,13.55
2023-03-18T06:44:51.953Z,13.70
2023-03-18T06:50:02.485Z,14.02
2023-03-18T06:55:07.643Z,8.55
2023-03-18T07:00:11.998Z,5.72
2023-03-18T07:05:13.764Z,3.60
2023-03-18T07:10:21.043Z,4.20
2023-03-18T07:15:21.873Z,4.20
2023-03-18T07:20:24.902Z,5.10
2023-03-18T07:25:23.873Z,3.95
2023-03-18T07:30:23.096Z,4.00
2023-03-18T07:35:27.635Z,4.80
2023-03-18T07:40:26.595Z,3.25
2023-03-18T07:45:25.726Z,3.63
2023-03-18T07:50:26.466Z,4.35
2023-03-18T07:55:25.479Z,4.53
2023-03-18T08:00:24.541Z,3.20
2023-03-18T08:05:23.324Z,2.38
2023-03-18T08:10:24.093Z,2.78
2023-03-18T08:15:23.839Z,3.70
2023-03-18T08:20:23.231Z,2.67
2023-03-18T08:25:31.774Z,4.75
2023-03-18T08:30:32.776Z,2.30
2023-03-18T08:35:32.085Z,2.88
2023-03-18T08:40:34.887Z,2.70
2023-03-18T08:45:34.132Z,3.65
2023-03-18T08:50:33.195Z,2.70
2023-03-18T08:55:35.843Z,3.08
2023-03-18T09:00:36.589Z,2.22
2023-03-18T09:05:36.842Z,2.67
2023-03-18T09:10:37.142Z,2.13
2023-03-18T09:15:35.946Z,2.50
2023-03-18T09:20:34.858Z,2.40
2023-03-18T09:25:34.476Z,1.83
2023-03-18T09:30:35.311Z,10.43
2023-03-18T09:35:34.684Z,2.78
2023-03-18T09:40:37.972Z,3.05
2023-03-18T09:45:49.512Z,2.65
2023-03-18T09:50:57.551Z,2.67
2023-03-18T09:56:00.958Z,3.63
2023-03-18T10:01:03.246Z,3.72
2023-03-18T10:06:07.017Z,3.00
2023-03-18T10:11:12.938Z,2.60
2023-03-18T10:16:19.612Z,2.53
2023-03-18T10:21:28.336Z,2.97
2023-03-18T10:26:33.458Z,2.90
2023-03-18T10:31:49.403Z,2.95
2023-03-18T10:36:54.225Z,4.15
2023-03-18T10:41:55.274Z,3.17
2023-03-18T10:47:01.251Z,3.10
2023-03-18T10:52:07.860Z,5.00
2023-03-18T10:57:06.834Z,3.58
2023-03-18T11:02:17.209Z,3.85
2023-03-18T11:07:20.918Z,3.03
2023-03-18T11:12:24.395Z,4.60
2023-03-18T11:17:29.349Z,4.53
2023-03-18T11:22:30.268Z,4.55
2023-03-18T11:27:39.973Z,4.70
2023-03-18T11:32:52.816Z,5.93
2023-03-18T11:37:52.401Z,6.22
2023-03-18T11:42:57.237Z,4.40
2023-03-18T11:47:58.501Z,5.75
2023-03-18T11:59:21.102Z,4.25
2023-03-18T12:04:48.852Z,3.92
2023-03-18T12:09:55.569Z,5.60
2023-03-18T12:15:03.193Z,3.90
2023-03-18T12:20:40.489Z,3.85
2023-03-18T12:25:58.169Z,3.60
2023-03-18T12:31:14.158Z,4.20
2023-03-18T12:36:23.730Z,4.47
2023-03-18T12:41:47.254Z,3.38
2023-03-18T12:46:50.883Z,3.38
2023-03-18T12:51:57.497Z,2.95
2023-03-18T12:57:03.662Z,2.78
2023-03-18T13:02:20.277Z,2.60
2023-03-18T13:07:27.646Z,2.67
2023-03-18T13:12:31.962Z,6.57
2023-03-18T13:17:34.193Z,6.15
2023-03-18T13:22:57.500Z,4.80
2023-03-18T13:28:23.084Z,3.30
2023-03-18T13:34:04.057Z,2.50
2023-03-18T13:39:20.669Z,2.10
2023-03-18T13:44:26.125Z,3.75
2023-03-18T13:49:29.732Z,3.28
2023-03-18T13:54:36.082Z,4.93
2023-03-18T13:59:46.946Z,3.20
2023-03-18T14:04:52.013Z,4.15
2023-03-18T14:10:18.936Z,3.55
2023-03-18T14:15:38.943Z,3.65
2023-03-18T14:20:45.020Z,4.07
2023-03-18T14:25:54.579Z,4.82
2023-03-18T14:31:17.827Z,3.20
2023-03-18T14:36:16.780Z,3.00
2023-03-18T14:41:22.677Z,3.10
2023-03-18T14:46:31.511Z,3.92
2023-03-18T14:51:32.918Z,4.00
2023-03-18T14:56:42.733Z,4.28
2023-03-18T15:01:46.011Z,3.92
2023-03-18T15:06:45.659Z,4.22
2023-03-18T15:11:47.928Z,5.25
2023-03-18T15:16:50.947Z,4.32
2023-03-18T15:21:50.292Z,6.13
2023-03-18T15:26:57.992Z,5.72
2023-03-18T15:32:10.457Z,4.38
2023-03-18T15:37:33.707Z,4.80
2023-03-18T15:42:34.771Z,5.68
2023-03-18T15:47:34.700Z,5.57
2023-03-18T15:52:36.734Z,5.72
2023-03-18T15:57:40.328Z,4.88
2023-03-18T16:02:39.574Z,6.45
2023-03-18T16:07:38.731Z,6.03
2023-03-18T16:12:41.154Z,5.00
2023-03-18T16:17:39.953Z,5.95
2023-03-18T16:22:39.493Z,5.38
2023-03-18T16:27:48.542Z,6.72
2023-03-18T16:32:49.820Z,6.35
2023-03-18T16:37:53.643Z,7.15
2023-03-18T16:43:08.669Z,7.18
2023-03-18T16:48:17.483Z,7.72
2023-03-18T16:53:27.919Z,7.22
2023-03-18T16:58:37.818Z,7.38
2023-03-18T17:03:46.707Z,6.70
2023-03-18T17:08:45.472Z,8.05
2023-03-18T17:13:45.760Z,7.15
2023-03-18T17:18:44.593Z,7.30
2023-03-18T17:23:43.485Z,7.40
2023-03-18T17:28:44.850Z,7.90
2023-03-18T17:33:45.067Z,7.80
2023-03-18T17:38:43.937Z,9.48
2023-03-18T17:43:43.282Z,8.00
2023-03-18T17:48:42.240Z,7.82
2023-03-18T17:53:45.158Z,8.48
2023-03-18T17:58:45.768Z,8.70
2023-03-18T18:03:45.054Z,9.38
2023-03-18T18:08:45.198Z,8.70
2023-03-18T18:13:44.036Z,9.07
2023-03-18T18:18:43.000Z,9.93
2023-03-18T18:23:42.519Z,8.32
2023-03-18T18:28:45.270Z,9.15
2023-03-18T18:33:45.604Z,9.43
2023-03-18T18:38:44.405Z,10.35
2023-03-18T18:43:44.486Z,10.77
2023-03-18T18:48:45.145Z,9.70
2023-03-18T18:53:44.058Z,9.35
2023-03-18T18:58:44.298Z,10.45
2023-03-18T19:03:43.735Z,10.35
2023-03-18T19:08:42.566Z,10.05
2023-03-18T19:13:42.107Z,12.20
2023-03-18T19:18:43.311Z,11.73
2023-03-18T19:23:42.168Z,11.90
2023-03-18T19:29:01.355Z,11.48
2023-03-18T19:34:02.367Z,11.52
2023-03-18T19:39:02.710Z,11.15
2023-03-18T19:44:05.042Z,11.73
2023-03-18T19:49:13.773Z,11.90
2023-03-18T19:54:24.002Z,11.50
2023-03-18T19:59:25.124Z,10.48
2023-03-18T20:04:27.766Z,11.63
2023-03-18T20:09:26.639Z,12.00
2023-03-18T20:14:27.779Z,13.27
2023-03-18T20:19:29.915Z,12.27
2023-03-18T20:24:30.315Z,11.88
2023-03-18T20:29:30.345Z,12.10
2023-03-18T20:34:30.698Z,12.48
2023-03-18T20:39:29.893Z,26.45
2023-03-18T20:44:28.606Z,46.08
2023-03-18T20:49:27.718Z,12.75
2023-03-18T20:54:30.663Z,13.20
2023-03-18T20:59:29.366Z,10.60
2023-03-18T21:04:28.393Z,9.23
2023-03-18T21:09:28.860Z,10.43
2023-03-18T21:14:27.776Z,10.77
2023-03-18T21:19:26.675Z,10.25
2023-03-18T21:24:29.435Z,11.00
2023-03-18T21:29:28.181Z,14.15
2023-03-18T21:34:26.979Z,10.93
2023-03-18T21:39:25.786Z,11.75
2023-03-18T21:44:26.025Z,12.07
2023-03-18T21:49:24.936Z,12.60
2023-03-18T21:54:25.870Z,11.50
2023-03-18T21:59:27.155Z,13.70
2023-03-18T22:04:26.027Z,10.43
2023-03-18T22:09:26.660Z,10.32
2023-03-18T22:14:26.778Z,12.15
2023-03-18T22:19:25.553Z,11.90
2023-03-18T22:24:24.433Z,12.98
2023-03-18T22:29:24.365Z,11.05
2023-03-18T22:34:25.162Z,10.48
2023-03-18T22:39:23.895Z,10.82
2023-03-18T22:44:25.343Z,11.13
2023-03-18T22:49:25.474Z,10.07
2023-03-18T22:54:26.375Z,11.60
2023-03-18T22:59:25.138Z,10.60
2023-03-18T23:04:25.789Z,11.90
2023-03-18T23:09:25.380Z,9.98
2023-03-18T23:14:24.627Z,10.10
2023-03-18T23:19:23.561Z,10.50
2023-03-18T23:24:23.711Z,10.68
2023-03-18T23:29:22.419Z,10.65
2023-03-18T23:34:21.096Z,9.93
2023-03-18T23:39:19.912Z,10.35
2023-03-18T23:44:20.023Z,8.70
2023-03-18T23:49:19.239Z,9.60
2023-03-18T23:54:18.084Z,11.05
2023-03-18T23:59:16.889Z,11.60
